Terminal Aerodrome Forecast
Issued by NWS

Home | Current Version | Previous Version | Text Only | Print | Product List | Glossary On
Versions: 1 2 3 4 5 6 7 8 9 10 11 12 13 14 15 16
000
FTUS44 KEPZ 272300
TAFTCS
TAF
KTCS 272334Z 2800/2824 16008G18KT P6SM FEW070 BKN200
     FM280600 18007KT P6SM SCT015 BKN150 BKN250
      TEMPO 2809/2813 BKN015
     FM281800 21017G27KT P6SM SCT060 BKN250=

USA.gov is the U.S. government's official web portal to all federal, state and local government web resources and services.